Time;durP1;ratioP1;P1;durP2;ratioP2;P2;SDS_P1;SDS_P2;PMS_P1;PMS_P2;Temp;Humidity;BMP_temperature;BMP_pressure;BME280_temperature;BME280_humidity;BME280_pressure;Samples;Min_cycle;Max_cycle;Signal;HPM_P1;HPM_P2
2021/07/19 00:00:14;;;;;;;;;7.50;7.50;;;;;25.71;51.36;101734.47;4994081;28;51204;-55
2021/07/19 00:02:40;;;;;;;;;12.75;7.25;;;;;25.71;51.38;101730.84;4994975;28;51074;-56
2021/07/19 00:05:07;;;;;;;;;8.00;8.00;;;;;25.69;51.49;101714.41;4993775;28;51045;-52
2021/07/19 00:07:32;;;;;;;;;8.50;8.50;;;;;25.69;51.49;101725.50;4996069;28;50955;-53
2021/07/19 00:09:57;;;;;;;;;7.25;7.00;;;;;25.69;51.33;101730.19;4998257;28;51055;-53
2021/07/19 00:12:23;;;;;;;;;6.00;6.00;;;;;25.69;51.56;101725.50;4998441;28;51226;-55
2021/07/19 00:14:48;;;;;;;;;9.00;6.50;;;;;25.67;51.19;101713.78;4997333;28;51068;-54
2021/07/19 00:17:16;;;;;;;;;8.00;8.00;;;;;25.67;51.41;101719.34;4997164;28;51049;-55
2021/07/19 00:19:43;;;;;;;;;6.25;6.25;;;;;25.67;51.03;101721.28;4997196;28;51547;-53
2021/07/19 00:22:08;;;;;;;;;7.00;6.75;;;;;25.66;51.22;101719.59;4998426;28;51145;-55
2021/07/19 00:24:34;;;;;;;;;7.50;7.50;;;;;25.65;51.56;101724.28;4997422;28;50932;-53
2021/07/19 00:27:00;;;;;;;;;8.50;8.00;;;;;25.66;51.32;101719.59;4998053;28;50975;-55
2021/07/19 00:29:25;;;;;;;;;10.00;8.00;;;;;25.66;51.42;101725.13;4995863;28;51104;-54
2021/07/19 00:31:50;;;;;;;;;8.25;7.50;;;;;25.64;51.27;101722.59;4995342;28;51209;-55
2021/07/19 00:34:16;;;;;;;;;7.75;7.75;;;;;25.64;51.13;101714.28;4997429;28;51529;-57
2021/07/19 00:36:41;;;;;;;;;6.25;6.25;;;;;25.64;51.31;101722.59;4997695;28;60398;-54
2021/07/19 00:39:11;;;;;;;;;9.00;8.25;;;;;25.65;51.66;101723.44;4997817;28;50968;-53
2021/07/19 00:41:38;;;;;;;;;5.50;5.50;;;;;25.63;51.16;101727.28;4997190;28;51582;-54
2021/07/19 00:44:05;;;;;;;;;8.00;8.00;;;;;25.62;51.28;101724.75;4996435;28;51284;-54
2021/07/19 00:46:30;;;;;;;;;8.75;7.50;;;;;25.62;51.03;101721.97;4978293;28;50946;-54
2021/07/19 00:48:56;;;;;;;;;9.00;7.75;;;;;25.61;50.90;101715.56;4978799;28;51228;-53
2021/07/19 00:51:22;;;;;;;;;10.75;8.50;;;;;25.60;51.23;101719.44;4995915;28;51091;-53
2021/07/19 00:53:47;;;;;;;;;6.00;6.00;;;;;25.59;51.08;101714.97;4996424;28;51108;-53
2021/07/19 00:56:14;;;;;;;;;7.75;7.75;;;;;25.60;51.41;101718.59;4997439;28;56728;-55
2021/07/19 00:58:41;;;;;;;;;7.50;7.00;;;;;25.59;51.25;101716.91;4997577;28;51054;-52
2021/07/19 01:01:07;;;;;;;;;8.00;7.00;;;;;25.58;50.94;101718.81;4996635;28;51095;-54
2021/07/19 01:03:33;;;;;;;;;5.25;4.75;;;;;25.58;51.19;101717.97;4997619;28;51130;-54
2021/07/19 01:06:01;;;;;;;;;6.00;6.00;;;;;25.57;50.94;101714.38;4997028;28;51282;-55
2021/07/19 01:08:26;;;;;;;;;8.75;7.00;;;;;25.56;51.14;101714.59;4996610;28;51448;-52
2021/07/19 01:10:52;;;;;;;;;11.75;6.50;;;;;25.57;51.18;101716.28;4995044;28;51317;-53
2021/07/19 01:13:17;;;;;;;;;5.00;5.00;;;;;25.55;51.43;101722.06;4997512;28;51314;-53
2021/07/19 01:15:43;;;;;;;;;10.00;9.00;;;;;25.54;51.07;101705.66;4995924;28;50968;-52
2021/07/19 01:18:10;;;;;;;;;8.25;8.00;;;;;25.55;50.87;101710.13;4996548;28;51042;-53
2021/07/19 01:21:06;;;;;;;;;11.50;8.75;;;;;25.54;51.34;101711.22;4994234;28;51157;-54
2021/07/19 01:23:53;;;;;;;;;5.75;5.75;;;;;25.54;50.88;101717.63;4990904;28;51114;-52
2021/07/19 01:27:00;;;;;;;;;6.75;6.00;;;;;25.53;50.93;101704.84;4993432;28;51158;-56
2021/07/19 01:29:26;;;;;;;;;7.50;6.75;;;;;25.53;51.09;101709.50;4963644;28;51364;-53
2021/07/19 01:31:52;;;;;;;;;8.00;8.00;;;;;25.52;51.46;101711.44;4994807;28;51153;-54
2021/07/19 01:34:28;;;;;;;;;11.75;9.25;;;;;25.52;51.21;101707.81;4996138;28;51198;-53
2021/07/19 01:36:57;;;;;;;;;7.00;7.00;;;;;25.52;51.20;101713.38;4997198;28;51036;-54
2021/07/19 01:39:28;;;;;;;;;8.50;7.00;;;;;25.51;51.06;101706.13;4996977;28;51347;-55
2021/07/19 01:41:56;;;;;;;;;10.00;10.00;;;;;25.50;51.08;101712.75;4995799;28;51471;-54
2021/07/19 01:44:22;;;;;;;;;7.25;6.25;;;;;25.49;51.16;101713.84;4997104;28;51054;-56
2021/07/19 01:46:50;;;;;;;;;8.75;7.75;;;;;25.48;51.12;101714.94;4996773;28;51877;-55
2021/07/19 01:49:16;;;;;;;;;9.50;8.00;;;;;25.48;51.35;101712.16;4996230;28;51451;-55
2021/07/19 01:51:42;;;;;;;;;9.50;7.50;;;;;25.47;51.12;101716.00;4995149;28;51162;-56
2021/07/19 01:54:09;;;;;;;;;6.75;6.50;;;;;25.46;50.84;101714.31;4996981;28;51042;-54
2021/07/19 01:56:36;;;;;;;;;8.50;8.00;;;;;25.46;51.25;101708.78;4993970;28;52041;-55
2021/07/19 01:59:03;;;;;;;;;7.00;7.00;;;;;25.46;51.02;101715.16;4996633;28;51108;-55
2021/07/19 02:01:29;;;;;;;;;8.50;8.50;;;;;25.46;50.89;101717.09;4996802;28;51168;-55
2021/07/19 02:03:55;;;;;;;;;6.75;5.75;;;;;25.45;51.08;101715.41;4996650;28;50944;-55
2021/07/19 02:06:24;;;;;;;;;9.75;7.75;;;;;25.45;51.08;101710.69;4994555;28;51203;-53
2021/07/19 02:08:52;;;;;;;;;10.75;8.75;;;;;25.45;51.05;101715.41;4996615;28;51166;-54
2021/07/19 02:11:21;;;;;;;;;7.25;7.00;;;;;25.44;51.06;101709.00;4994486;28;51119;-55
2021/07/19 02:13:47;;;;;;;;;11.00;9.75;;;;;25.44;50.80;101711.78;4996708;28;51236;-53
2021/07/19 02:16:14;;;;;;;;;9.00;7.75;;;;;25.43;51.15;101710.09;4995151;28;51063;-54
2021/07/19 02:18:41;;;;;;;;;10.75;8.00;;;;;25.44;51.14;101708.16;4995818;28;51037;-55
2021/07/19 02:21:07;;;;;;;;;9.25;9.25;;;;;25.42;50.91;101701.97;4996687;28;51184;-54
2021/07/19 02:23:34;;;;;;;;;8.00;8.00;;;;;25.40;51.10;101699.44;4996559;28;51147;-53
2021/07/19 02:26:01;;;;;;;;;9.75;9.25;;;;;25.41;51.24;101706.69;4977434;28;51136;-54
2021/07/19 02:28:27;;;;;;;;;11.25;8.50;;;;;25.40;51.14;101701.38;4996546;28;50947;-57
2021/07/19 02:30:54;;;;;;;;;8.00;8.00;;;;;25.40;51.02;101701.38;4995395;28;51258;-53
2021/07/19 02:33:20;;;;;;;;;7.00;7.00;;;;;25.39;50.96;101700.53;4996364;28;51068;-54
2021/07/19 02:35:48;;;;;;;;;8.50;7.75;;;;;25.38;51.10;101709.94;4995269;28;51753;-55
2021/07/19 02:38:14;;;;;;;;;11.75;9.50;;;;;25.38;51.03;101714.63;4996542;28;51105;-56
2021/07/19 02:40:41;;;;;;;;;8.25;6.50;;;;;25.36;51.06;101720.44;4993931;28;51094;-55
2021/07/19 02:43:08;;;;;;;;;7.50;7.00;;;;;25.36;51.18;101714.88;4996321;28;50995;-53
2021/07/19 02:45:37;;;;;;;;;10.75;9.00;;;;;25.36;51.08;101714.03;4996156;28;51934;-55
2021/07/19 02:48:05;;;;;;;;;7.25;6.75;;;;;25.34;50.95;101717.03;4995403;28;51235;-55
2021/07/19 02:50:34;;;;;;;;;9.75;8.25;;;;;25.33;51.22;101713.44;4993813;28;51420;-55
2021/07/19 02:53:04;;;;;;;;;9.75;8.00;;;;;25.32;51.23;101717.28;4995133;28;51160;-55
2021/07/19 02:55:31;;;;;;;;;7.00;7.00;;;;;25.32;51.14;101721.94;4994986;28;52623;-53
2021/07/19 02:58:02;;;;;;;;;9.00;6.75;;;;;25.32;51.59;101710.88;4996060;28;51076;-55
2021/07/19 03:00:28;;;;;;;;;11.75;8.75;;;;;25.31;51.10;101712.78;4995866;28;51191;-53
2021/07/19 03:02:57;;;;;;;;;7.75;7.00;;;;;25.31;50.95;101715.56;4995010;28;51166;-54
2021/07/19 03:05:28;;;;;;;;;10.25;9.50;;;;;25.29;51.32;101712.19;4993419;28;51274;-54
2021/07/19 03:07:56;;;;;;;;;11.00;10.00;;;;;25.29;51.04;101717.72;4994036;28;51401;-54
2021/07/19 03:10:22;;;;;;;;;11.25;9.00;;;;;25.29;51.41;101714.97;4992909;28;51403;-52
2021/07/19 03:12:54;;;;;;;;;10.50;8.25;;;;;25.29;51.22;101711.34;4995804;28;51319;-54
2021/07/19 03:15:23;;;;;;;;;7.00;6.25;;;;;25.27;51.20;101706.03;4994474;28;51122;-55
2021/07/19 03:17:50;;;;;;;;;9.50;8.00;;;;;25.28;51.17;101706.88;4995138;28;51256;-54
2021/07/19 03:20:16;;;;;;;;;11.00;9.50;;;;;25.27;51.18;101714.34;4995274;28;51067;-55
2021/07/19 03:22:43;;;;;;;;;9.50;8.75;;;;;25.27;51.33;101699.63;4992898;28;51111;-55
2021/07/19 03:25:10;;;;;;;;;7.00;7.00;;;;;25.27;51.04;101707.97;4994642;28;51992;-56
2021/07/19 03:27:38;;;;;;;;;10.00;8.25;;;;;25.26;51.20;101709.03;4995558;28;51217;-53
2021/07/19 03:30:06;;;;;;;;;10.75;9.50;;;;;25.25;51.18;101710.13;4992021;28;50934;-54
2021/07/19 03:32:33;;;;;;;;;10.00;10.00;;;;;25.25;51.19;101699.88;4981901;28;51343;-54
2021/07/19 03:34:59;;;;;;;;;9.50;8.50;;;;;25.25;51.11;101701.81;4994132;28;51162;-55
2021/07/19 03:37:25;;;;;;;;;7.50;5.75;;;;;25.24;50.92;101703.72;4994747;28;51334;-55
2021/07/19 03:39:53;;;;;;;;;8.00;7.00;;;;;25.23;50.96;101693.72;4994755;28;51131;-55
2021/07/19 03:42:20;;;;;;;;;8.25;7.00;;;;;25.24;50.92;101702.88;4996376;28;50994;-55
2021/07/19 03:44:46;;;;;;;;;10.25;8.25;;;;;25.22;51.33;101693.94;4996162;28;51922;-55
2021/07/19 03:47:13;;;;;;;;;10.25;9.25;;;;;25.22;51.04;101694.81;4998262;28;51547;-54
2021/07/19 03:49:40;;;;;;;;;9.50;8.00;;;;;25.21;51.09;101695.84;4997914;28;51127;-54
2021/07/19 03:52:06;;;;;;;;;7.50;6.75;;;;;25.21;50.98;101689.47;4999049;28;51079;-56
2021/07/19 03:54:34;;;;;;;;;14.50;11.75;;;;;25.21;51.22;101692.25;4998391;28;52009;-55
2021/07/19 03:57:02;;;;;;;;;6.25;6.25;;;;;25.19;51.21;101692.47;4997927;28;51423;-56
2021/07/19 03:59:28;;;;;;;;;9.00;9.00;;;;;25.20;51.29;101701.66;4997522;28;51266;-54
2021/07/19 04:01:53;;;;;;;;;8.00;8.00;;;;;25.19;50.91;101699.97;4997923;28;51145;-55
2021/07/19 04:04:30;;;;;;;;;9.50;9.00;;;;;25.18;51.13;101701.88;4994926;28;51228;-55
2021/07/19 04:06:59;;;;;;;;;7.25;7.25;;;;;25.17;51.30;101702.13;4997129;28;51112;-56
2021/07/19 04:09:26;;;;;;;;;10.25;8.00;;;;;25.17;51.01;101702.13;4998364;28;51086;-56
2021/07/19 04:11:53;;;;;;;;;10.00;10.00;;;;;25.16;51.20;101695.72;4997655;28;51015;-54
2021/07/19 04:14:19;;;;;;;;;11.00;9.00;;;;;25.15;51.20;101702.34;4996082;28;53095;-55
2021/07/19 04:16:44;;;;;;;;;8.00;8.00;;;;;25.14;51.35;101697.91;4997835;28;51045;-55
2021/07/19 04:19:13;;;;;;;;;11.00;7.00;;;;;25.14;51.25;101697.06;4998312;28;51276;-53
2021/07/19 04:21:39;;;;;;;;;11.25;9.00;;;;;25.13;51.25;101698.97;4998436;28;51044;-54
2021/07/19 04:24:05;;;;;;;;;8.25;8.25;;;;;25.12;51.16;101697.28;4995509;28;51027;-54
2021/07/19 04:26:31;;;;;;;;;7.25;7.25;;;;;25.12;50.88;101694.53;4997942;28;51378;-54
2021/07/19 04:29:00;;;;;;;;;6.75;6.75;;;;;25.12;51.04;101691.75;4997387;28;51132;-51
2021/07/19 04:31:25;;;;;;;;;11.00;8.50;;;;;25.11;51.12;101690.03;4995905;28;51280;-54
2021/07/19 04:33:50;;;;;;;;;10.50;9.50;;;;;25.11;51.25;101694.72;4997823;28;51732;-54
2021/07/19 04:36:17;;;;;;;;;8.50;7.50;;;;;25.11;51.30;101698.34;4998050;28;51048;-54
2021/07/19 04:38:43;;;;;;;;;7.50;7.50;;;;;25.10;51.33;101693.88;4995993;28;51163;-53
2021/07/19 04:41:09;;;;;;;;;8.50;8.50;;;;;25.10;51.17;101695.81;4979716;28;51327;-54
2021/07/19 04:43:34;;;;;;;;;14.25;9.00;;;;;25.10;50.91;101702.19;4996741;28;51129;-54
2021/07/19 04:45:59;;;;;;;;;10.25;7.50;;;;;25.08;51.00;101698.81;4997319;28;51021;-54
2021/07/19 04:48:25;;;;;;;;;10.00;9.25;;;;;25.09;50.89;101694.97;4995490;28;51143;-54
2021/07/19 04:50:50;;;;;;;;;7.75;7.75;;;;;25.08;51.14;101693.28;4996148;28;51208;-55
2021/07/19 04:53:16;;;;;;;;;11.00;9.75;;;;;25.09;51.30;101694.13;4997626;28;51094;-53
2021/07/19 04:55:46;;;;;;;;;11.25;9.50;;;;;25.08;51.07;101696.03;4997661;28;51178;-53
2021/07/19 04:58:15;;;;;;;;;10.50;9.50;;;;;25.07;51.20;101705.44;4996651;28;51052;-55
2021/07/19 05:00:45;;;;;;;;;9.00;8.00;;;;;25.07;51.09;101702.66;4994593;28;51197;-54
2021/07/19 05:03:11;;;;;;;;;9.25;9.00;;;;;25.04;51.10;101697.59;4997312;28;51909;-54
2021/07/19 05:05:39;;;;;;;;;9.75;9.00;;;;;25.04;50.85;101697.59;4997350;28;51046;-54
2021/07/19 05:08:07;;;;;;;;;10.50;10.25;;;;;25.03;51.27;101702.31;4996481;28;51166;-55
2021/07/19 05:10:32;;;;;;;;;8.00;7.25;;;;;25.03;51.01;101705.06;4995772;28;51110;-54
2021/07/19 05:12:58;;;;;;;;;10.25;6.50;;;;;25.01;51.07;101707.25;4996271;28;52031;-53
2021/07/19 05:15:24;;;;;;;;;9.75;9.75;;;;;25.01;51.14;101710.00;4997451;28;51384;-56
2021/07/19 05:17:50;;;;;;;;;9.75;9.75;;;;;25.00;50.88;101719.34;4996883;28;50989;-57
2021/07/19 05:20:21;;;;;;;;;9.00;8.25;;;;;25.00;51.01;101708.25;4997129;28;50960;-54
2021/07/19 05:22:52;;;;;;;;;10.75;9.50;;;;;24.99;51.06;101706.56;4995499;28;52008;-53
2021/07/19 05:25:30;;;;;;;;;9.00;9.00;;;;;25.00;51.23;101705.47;4996538;28;51090;-52
2021/07/19 05:27:58;;;;;;;;;11.00;8.75;;;;;24.99;51.21;101706.56;4996019;28;51070;-56
2021/07/19 05:30:28;;;;;;;;;10.00;9.75;;;;;24.99;51.07;101703.78;4996333;28;51167;-55
2021/07/19 05:32:54;;;;;;;;;11.75;9.00;;;;;25.00;51.14;101701.88;4996574;28;50941;-53
2021/07/19 05:35:19;;;;;;;;;10.75;7.75;;;;;24.99;51.07;101709.34;4992494;28;51532;-54
2021/07/19 05:37:46;;;;;;;;;9.25;7.50;;;;;25.00;51.11;101712.94;4994725;28;51307;-56
2021/07/19 05:40:12;;;;;;;;;7.50;7.25;;;;;25.00;50.95;101710.19;4994675;28;52685;-57
2021/07/19 05:42:39;;;;;;;;;10.50;9.50;;;;;25.00;51.15;101715.72;4995420;28;51883;-56
2021/07/19 05:45:06;;;;;;;;;13.00;9.00;;;;;24.99;51.25;101712.09;4994705;28;51406;-56
2021/07/19 05:47:33;;;;;;;;;12.75;10.00;;;;;24.98;51.26;101715.97;4994621;28;50901;-58
2021/07/19 05:49:58;;;;;;;;;11.00;9.00;;;;;24.98;51.37;101715.13;4997011;28;51056;-57
2021/07/19 05:52:23;;;;;;;;;12.25;9.00;;;;;24.98;51.24;101715.97;4996956;28;51698;-55
2021/07/19 05:54:49;;;;;;;;;9.75;9.00;;;;;24.98;51.23;101718.72;4995699;28;51137;-56
2021/07/19 05:57:14;;;;;;;;;11.00;9.75;;;;;24.99;51.30;101714.88;4995225;28;51475;-56
2021/07/19 05:59:39;;;;;;;;;11.00;11.00;;;;;24.99;51.18;101708.50;4989974;28;51261;-56
2021/07/19 06:02:05;;;;;;;;;11.50;10.75;;;;;25.00;51.21;101712.94;4994224;28;51717;-56
2021/07/19 06:04:30;;;;;;;;;8.00;8.00;;;;;25.00;51.26;101712.94;4993654;28;51172;-56
2021/07/19 06:06:55;;;;;;;;;12.75;12.50;;;;;25.00;51.51;101708.25;4994884;28;51257;-55
2021/07/19 06:09:21;;;;;;;;;12.50;7.25;;;;;24.99;51.54;101709.34;4996427;28;51208;-55
2021/07/19 06:11:46;;;;;;;;;10.00;9.00;;;;;25.01;51.61;101712.78;4995249;28;53271;-56
2021/07/19 06:14:11;;;;;;;;;8.25;8.25;;;;;25.01;51.73;101706.31;4994288;28;51067;-56
2021/07/19 06:16:38;;;;;;;;;10.50;10.00;;;;;25.01;51.59;101711.88;4994182;28;51164;-60
2021/07/19 06:19:04;;;;;;;;;13.25;9.50;;;;;25.01;52.07;101718.31;4995617;28;51419;-59
2021/07/19 06:21:29;;;;;;;;;9.50;9.50;;;;;25.02;51.82;101710.84;4994068;28;51968;-62
2021/07/19 06:23:54;;;;;;;;;13.50;11.50;;;;;25.02;52.05;101710.84;4992784;28;51239;-63
2021/07/19 06:26:20;;;;;;;;;11.25;9.75;;;;;25.02;52.27;101711.69;4994716;28;51163;-62
2021/07/19 06:28:45;;;;;;;;;8.00;7.50;;;;;25.06;52.29;101708.44;4994490;28;51267;-62
2021/07/19 06:31:11;;;;;;;;;11.75;11.25;;;;;25.06;52.47;101714.84;4994265;28;51966;-61
2021/07/19 06:33:37;;;;;;;;;10.25;8.75;;;;;25.07;52.22;101713.75;4990563;28;51470;-62
2021/07/19 06:36:02;;;;;;;;;12.00;9.75;;;;;25.09;52.39;101713.53;4990337;28;51041;-61
2021/07/19 06:38:28;;;;;;;;;14.50;11.25;;;;;25.08;52.48;101715.44;4993095;28;51057;-61
2021/07/19 06:40:53;;;;;;;;;10.75;10.75;;;;;25.09;52.08;101706.06;4975036;28;51035;-60
2021/07/19 06:43:18;;;;;;;;;12.00;9.50;;;;;25.10;52.26;101707.75;4993978;28;51107;-60
2021/07/19 06:45:46;;;;;;;;;13.50;11.25;;;;;25.11;52.22;101711.34;4995039;28;51142;-60
2021/07/19 06:48:12;;;;;;;;;10.75;10.50;;;;;25.11;52.18;101714.13;4993239;28;51294;-56
2021/07/19 06:50:37;;;;;;;;;10.00;9.75;;;;;25.12;52.02;101710.31;4992789;28;51776;-57
2021/07/19 06:53:03;;;;;;;;;9.75;7.00;;;;;25.12;51.97;101705.59;4993657;28;51132;-57
2021/07/19 06:55:28;;;;;;;;;12.50;12.00;;;;;25.13;51.83;101704.53;4989962;28;51253;-57
2021/07/19 06:57:54;;;;;;;;;10.50;9.00;;;;;25.14;52.01;101708.13;4994110;28;51088;-56
2021/07/19 07:00:19;;;;;;;;;15.00;10.50;;;;;25.14;51.62;101706.22;4993357;28;51411;-56
2021/07/19 07:02:45;;;;;;;;;13.50;13.00;;;;;25.14;51.73;101709.00;4993548;28;51109;-56
2021/07/19 07:05:10;;;;;;;;;14.50;13.00;;;;;25.16;51.89;101711.53;4993384;28;50902;-57
2021/07/19 07:07:36;;;;;;;;;13.75;11.75;;;;;25.17;51.71;101700.19;4994225;28;51335;-57
2021/07/19 07:10:03;;;;;;;;;11.50;11.50;;;;;25.18;51.72;101698.28;4992384;28;51127;-56
2021/07/19 07:12:28;;;;;;;;;13.00;11.75;;;;;25.20;51.61;101701.66;4994064;28;51502;-57
2021/07/19 07:14:53;;;;;;;;;10.25;10.00;;;;;25.21;51.45;101706.09;4993876;28;51097;-57
2021/07/19 07:17:19;;;;;;;;;13.75;12.00;;;;;25.22;51.60;101702.25;4996175;28;50885;-57
2021/07/19 07:19:44;;;;;;;;;12.75;12.75;;;;;25.25;51.30;101705.41;4996399;28;51762;-58
2021/07/19 07:22:09;;;;;;;;;11.75;9.75;;;;;25.26;51.47;101703.50;4997283;28;51103;-57
2021/07/19 07:24:40;;;;;;;;;16.00;13.25;;;;;25.28;51.25;101704.94;4997589;28;51975;-57
2021/07/19 07:27:06;;;;;;;;;15.00;13.00;;;;;25.31;51.07;101703.63;5001864;28;52465;-57
2021/07/19 07:29:31;;;;;;;;;10.50;10.25;;;;;25.32;51.29;101708.09;4997454;28;52019;-57
2021/07/19 07:31:57;;;;;;;;;13.25;11.00;;;;;25.34;51.25;101705.94;4997094;28;51049;-58
2021/07/19 07:34:22;;;;;;;;;11.50;10.75;;;;;25.35;51.01;101704.03;4997444;28;51465;-57
2021/07/19 07:36:47;;;;;;;;;12.00;11.25;;;;;25.36;51.18;101703.78;4996623;28;51134;-58
2021/07/19 07:39:13;;;;;;;;;13.50;12.25;;;;;25.40;51.09;101701.38;4991901;28;51811;-61
2021/07/19 07:41:38;;;;;;;;;14.00;11.00;;;;;25.40;51.24;101699.44;4993205;28;51363;-61
2021/07/19 07:44:04;;;;;;;;;12.00;10.75;;;;;25.41;51.15;101698.38;4989278;28;51378;-60
2021/07/19 07:46:29;;;;;;;;;15.50;12.75;;;;;25.42;51.10;101699.22;4996024;28;51390;-59
2021/07/19 07:48:55;;;;;;;;;13.75;8.50;;;;;25.42;51.13;101701.97;4995300;28;52647;-60
2021/07/19 07:51:20;;;;;;;;;9.00;8.25;;;;;25.42;51.07;101699.22;4996589;28;51228;-60
2021/07/19 07:53:46;;;;;;;;;9.00;9.00;;;;;25.43;51.31;101703.66;4978221;28;51373;-60
2021/07/19 07:56:11;;;;;;;;;11.00;11.00;;;;;25.43;51.13;101699.00;4996502;28;51163;-60
2021/07/19 07:58:38;;;;;;;;;10.50;10.50;;;;;25.43;51.07;101704.53;4995746;28;51327;-59
2021/07/19 08:01:03;;;;;;;;;10.25;10.00;;;;;25.44;51.09;101708.16;4995434;28;51104;-60
2021/07/19 08:03:29;;;;;;;;;11.75;9.75;;;;;25.43;51.34;101696.22;4996088;28;51163;-60
2021/07/19 08:05:54;;;;;;;;;12.75;11.75;;;;;25.44;51.05;101695.16;4996146;28;51354;-60
2021/07/19 08:08:19;;;;;;;;;13.75;10.75;;;;;25.44;51.36;101695.16;4992000;28;51065;-60
2021/07/19 08:10:45;;;;;;;;;8.25;8.25;;;;;25.45;51.20;101696.00;4990320;28;51028;-59
2021/07/19 08:13:10;;;;;;;;;10.50;10.50;;;;;25.45;51.18;101696.84;4988683;28;51209;-60
2021/07/19 08:15:37;;;;;;;;;10.25;9.50;;;;;25.45;51.25;101693.22;4993082;28;51974;-60
2021/07/19 08:18:03;;;;;;;;;12.50;9.25;;;;;25.46;51.37;101689.34;4989286;28;52653;-61
2021/07/19 08:20:28;;;;;;;;;11.75;9.25;;;;;25.46;51.18;101686.59;4991358;28;51455;-58
2021/07/19 08:22:54;;;;;;;;;9.00;9.00;;;;;25.46;50.96;101683.81;4995905;28;51116;-59
2021/07/19 08:25:20;;;;;;;;;8.00;8.00;;;;;25.47;50.71;101679.94;4995895;28;51140;-59
2021/07/19 08:27:47;;;;;;;;;10.25;10.00;;;;;25.47;50.82;101677.19;4996594;28;51136;-59
2021/07/19 08:30:13;;;;;;;;;8.50;8.50;;;;;25.47;50.91;101674.41;4996428;28;51452;-59
2021/07/19 08:32:39;;;;;;;;;13.75;10.00;;;;;25.48;50.63;101673.31;4997156;28;51083;-59
2021/07/19 08:35:09;;;;;;;;;11.00;9.75;;;;;25.49;50.36;101677.78;4996791;28;51210;-59
2021/07/19 08:37:47;;;;;;;;;11.00;8.00;;;;;25.50;50.58;101674.75;4996966;28;51914;-59
2021/07/19 08:40:18;;;;;;;;;13.00;10.25;;;;;25.51;50.40;101683.94;4996977;28;51178;-59
2021/07/19 08:42:44;;;;;;;;;8.75;7.00;;;;;25.50;50.25;101679.47;4997040;28;51201;-59
2021/07/19 08:45:11;;;;;;;;;10.50;8.75;;;;;25.51;50.42;101682.00;4996980;28;50846;-59
2021/07/19 08:47:44;;;;;;;;;8.50;8.50;;;;;25.53;50.12;101673.44;4996515;28;52595;-59
2021/07/19 08:50:12;;;;;;;;;9.25;8.00;;;;;25.52;50.40;101675.38;4996753;28;51118;-59
2021/07/19 08:52:38;;;;;;;;;11.00;8.00;;;;;25.54;50.38;101669.63;4996962;28;51098;-60
2021/07/19 08:55:06;;;;;;;;;9.25;9.00;;;;;25.54;50.59;101675.16;4996836;28;51184;-59
2021/07/19 08:57:31;;;;;;;;;9.00;8.25;;;;;25.54;49.97;101669.63;4996660;28;51121;-60
2021/07/19 09:00:00;;;;;;;;;9.00;7.00;;;;;25.55;50.48;101672.16;4996758;28;51046;-59
2021/07/19 09:02:25;;;;;;;;;6.00;6.00;;;;;25.55;50.08;101668.53;4997493;28;51088;-59
2021/07/19 09:04:51;;;;;;;;;8.75;8.00;;;;;25.56;50.29;101661.88;4997496;28;51130;-60
2021/07/19 09:07:17;;;;;;;;;8.50;7.00;;;;;25.56;50.26;101672.97;4996921;28;51893;-59
2021/07/19 09:09:43;;;;;;;;;7.00;6.75;;;;;25.57;50.33;101660.81;4997361;28;51426;-60
2021/07/19 09:12:08;;;;;;;;;9.00;6.25;;;;;25.56;50.43;101664.66;4997200;28;51238;-60
2021/07/19 09:14:37;;;;;;;;;7.00;5.75;;;;;25.57;50.44;101669.97;4997307;28;51104;-60
2021/07/19 09:17:03;;;;;;;;;7.75;6.00;;;;;25.57;50.22;101653.31;4996834;28;52118;-59
2021/07/19 09:19:29;;;;;;;;;7.00;6.25;;;;;25.58;50.12;101657.78;4979352;28;51257;-59
2021/07/19 09:22:03;;;;;;;;;6.50;6.00;;;;;25.59;50.27;101658.63;4997360;28;51155;-59
2021/07/19 09:24:36;;;;;;;;;7.75;4.25;;;;;25.60;50.13;101654.78;4979363;28;51298;-59
2021/07/19 09:27:02;;;;;;;;;6.50;5.75;;;;;25.60;50.15;101657.53;4997007;28;51351;-59
2021/07/19 09:29:27;;;;;;;;;9.25;6.50;;;;;25.60;50.10;101649.22;4996701;28;51122;-59
2021/07/19 09:31:58;;;;;;;;;9.00;6.50;;;;;25.62;50.02;101655.38;4996946;28;51027;-59
2021/07/19 09:34:31;;;;;;;;;7.50;5.75;;;;;25.62;49.95;101649.81;4997030;28;51066;-60
2021/07/19 09:37:07;;;;;;;;;5.50;5.25;;;;;25.62;50.11;101656.22;4996645;28;50983;-60
2021/07/19 09:39:54;;;;;;;;;7.25;7.00;;;;;25.62;50.20;101653.44;4996049;28;51301;-60
2021/07/19 09:42:27;;;;;;;;;5.00;5.00;;;;;25.63;49.92;101648.75;4996629;28;51169;-60
2021/07/19 09:44:58;;;;;;;;;6.00;6.00;;;;;25.65;50.09;101642.97;4997136;28;51127;-59
2021/07/19 09:47:40;;;;;;;;;7.00;6.00;;;;;25.65;49.89;101648.53;4996521;28;52180;-59
2021/07/19 09:50:08;;;;;;;;;6.00;4.25;;;;;25.66;50.03;101650.22;4996812;28;51131;-59
2021/07/19 09:52:34;;;;;;;;;5.25;5.25;;;;;25.66;50.02;101639.97;4996521;28;51044;-60
2021/07/19 09:55:00;;;;;;;;;5.75;5.75;;;;;25.67;50.02;101644.41;4996212;28;51519;-60
2021/07/19 09:57:26;;;;;;;;;6.00;6.00;;;;;25.68;50.11;101636.94;4996118;28;51081;-60
2021/07/19 09:59:56;;;;;;;;;6.25;6.25;;;;;25.68;50.15;101637.78;4996545;28;51177;-59
2021/07/19 10:02:39;;;;;;;;;6.25;6.25;;;;;25.69;50.22;101628.38;5030530;28;50954;-47
2021/07/19 10:05:09;;;;;;;;;5.00;5.00;;;;;25.71;50.16;101633.72;5013699;28;51488;-47
2021/07/19 10:07:43;;;;;;;;;8.00;5.75;;;;;25.73;50.15;101629.59;5001053;28;51162;-51
2021/07/19 10:10:10;;;;;;;;;4.25;4.25;;;;;25.73;50.45;101629.59;4998793;28;51916;-49
2021/07/19 10:12:35;;;;;;;;;4.00;4.00;;;;;25.75;50.15;101623.84;4998789;28;51451;-52
2021/07/19 10:15:06;;;;;;;;;7.50;6.25;;;;;25.75;50.00;101637.72;5000898;28;51130;-48
2021/07/19 10:17:33;;;;;;;;;2.00;2.00;;;;;25.75;50.07;101624.69;5004045;28;51161;-54
2021/07/19 10:19:58;;;;;;;;;4.00;4.00;;;;;25.76;50.46;101623.59;4995395;28;51499;-50
2021/07/19 10:22:24;;;;;;;;;6.00;4.75;;;;;25.78;50.20;101629.75;4993616;28;51141;-48
2021/07/19 10:24:51;;;;;;;;;5.25;5.25;;;;;25.79;50.36;101625.88;4996804;28;51157;-54
2021/07/19 10:27:20;;;;;;;;;6.75;5.00;;;;;25.79;50.06;101625.03;5012107;28;51199;-48
2021/07/19 10:29:46;;;;;;;;;3.75;3.75;;;;;25.81;50.39;101628.41;4996384;28;52343;-50
2021/07/19 10:32:15;;;;;;;;;6.00;6.00;;;;;25.82;50.30;101630.94;5001087;28;51958;-52
2021/07/19 10:34:42;;;;;;;;;7.75;5.75;;;;;25.83;50.30;101629.88;4995234;28;51418;-52
2021/07/19 10:37:15;;;;;;;;;6.75;4.00;;;;;25.84;50.54;101630.72;5009896;28;51489;-48
2021/07/19 10:39:43;;;;;;;;;5.50;5.00;;;;;25.85;50.30;101626.88;5005292;28;51183;-49
2021/07/19 10:42:12;;;;;;;;;5.75;4.75;;;;;25.86;50.40;101626.63;5004711;28;51024;-52
2021/07/19 10:44:43;;;;;;;;;7.50;5.25;;;;;25.87;50.53;101620.00;4995300;28;51095;-51
2021/07/19 10:47:27;;;;;;;;;5.00;5.00;;;;;25.88;50.21;101618.06;5005791;28;51016;-49
2021/07/19 10:50:05;;;;;;;;;5.75;5.00;;;;;25.89;50.30;101615.03;5001919;28;52594;-48
2021/07/19 10:52:39;;;;;;;;;4.75;4.75;;;;;25.90;50.25;101613.94;4999945;28;51275;-52
2021/07/19 10:55:10;;;;;;;;;7.00;5.00;;;;;25.91;50.72;101609.25;4999136;28;51200;-50
2021/07/19 10:57:44;;;;;;;;;4.75;4.75;;;;;25.93;50.54;101609.84;5005328;28;51152;-48
2021/07/19 11:00:14;;;;;;;;;4.25;3.25;;;;;25.94;50.13;101607.91;5010941;28;52597;-50
2021/07/19 11:02:40;;;;;;;;;5.50;5.25;;;;;25.94;50.42;101607.91;5025175;28;51200;-52
2021/07/19 11:05:07;;;;;;;;;6.25;5.25;;;;;25.94;50.46;101607.91;5017880;28;51078;-47
2021/07/19 11:07:41;;;;;;;;;6.50;5.25;;;;;25.95;50.39;101602.16;5012802;28;51375;-49
2021/07/19 11:10:13;;;;;;;;;5.00;4.25;;;;;25.96;50.30;101608.53;5021057;28;53200;-48
2021/07/19 11:12:49;;;;;;;;;5.00;5.00;;;;;25.95;50.59;101598.50;5022402;28;50952;-49
2021/07/19 11:15:15;;;;;;;;;6.75;6.00;;;;;25.96;50.29;101594.66;5008116;28;51140;-52
2021/07/19 11:17:40;;;;;;;;;5.00;5.00;;;;;25.96;50.52;101595.50;4997984;28;51154;-52
2021/07/19 11:20:15;;;;;;;;;6.00;5.75;;;;;25.97;50.36;101608.28;5004225;28;51229;-48
2021/07/19 11:22:42;;;;;;;;;6.00;5.00;;;;;25.98;50.25;101603.59;4998819;28;51266;-47